Time;durP1;ratioP1;P1;durP2;ratioP2;P2;SDS_P1;SDS_P2;PMS_P1;PMS_P2;Temp;Humidity;BMP_temperature;BMP_pressure;BME280_temperature;BME280_humidity;BME280_pressure;Samples;Min_cycle;Max_cycle;Signal;HPM_P1;HPM_P2
2021/04/27 00:09:44;;;;;;;30.05;16.20;;;;;;;-2.78;64.22;99633.03;471018;1171;116738;-60
2021/04/27 00:19:48;;;;;;;26.10;14.90;;;;;;;-2.77;64.90;99634.73;480582;1171;116520;-59
2021/04/27 00:29:52;;;;;;;25.47;16.73;;;;;;;-2.93;64.64;99629.73;476554;1170;116145;-58
2021/04/27 00:39:57;;;;;;;28.00;18.20;;;;;;;-2.92;65.22;99616.02;477060;1171;116069;-58
2021/04/27 00:50:01;;;;;;;36.00;18.60;;;;;;;-2.91;65.41;99620.30;476588;1170;115547;-58
2021/04/27 01:00:10;;;;;;;32.13;19.27;;;;;;;-3.00;65.15;99610.08;481143;1170;116109;-59
2021/04/27 01:10:18;;;;;;;39.70;21.10;;;;;;;-3.05;66.10;99612.69;480976;1171;116382;-58
2021/04/27 01:20:33;;;;;;;36.40;20.53;;;;;;;-3.02;66.69;99604.95;480682;1171;116584;-57
2021/04/27 01:30:42;;;;;;;34.30;20.75;;;;;;;-3.02;65.96;99599.80;485144;1170;156942;-59
2021/04/27 01:40:46;;;;;;;35.50;19.30;;;;;;;-3.05;65.75;99606.72;484795;1170;115646;-58
2021/04/27 01:50:52;;;;;;;35.37;19.03;;;;;;;-3.26;65.86;99611.14;476302;1170;115771;-60
2021/04/27 02:00:56;;;;;;;34.15;18.65;;;;;;;-3.35;65.64;99604.33;474070;1171;116260;-59
2021/04/27 02:11:00;;;;;;;31.93;18.03;;;;;;;-3.41;66.21;99601.82;484219;1171;115525;-57
2021/04/27 02:21:05;;;;;;;36.90;20.00;;;;;;;-3.48;66.39;99600.14;474323;1170;115580;-57
2021/04/27 02:31:10;;;;;;;36.07;21.63;;;;;;;-3.60;66.34;99601.09;479364;1170;116178;-59
2021/04/27 02:41:14;;;;;;;35.03;18.90;;;;;;;-3.61;66.44;99586.55;485429;1171;116113;-60
2021/04/27 02:51:18;;;;;;;29.70;19.75;;;;;;;-3.69;66.95;99589.17;472662;1171;117353;-58
2021/04/27 03:01:22;;;;;;;33.50;19.33;;;;;;;-3.84;66.37;99588.38;480736;1169;115931;-59
2021/04/27 03:11:26;;;;;;;46.45;19.85;;;;;;;-3.89;66.88;99591.82;483022;1170;119578;-58
2021/04/27 03:21:30;;;;;;;40.13;22.57;;;;;;;-3.89;67.04;99591.82;481922;1170;116929;-59
2021/04/27 03:31:34;;;;;;;44.57;24.53;;;;;;;-3.76;67.64;99592.63;485512;1170;115969;-59
2021/04/27 03:41:38;;;;;;;50.23;27.73;;;;;;;-3.62;66.93;99602.82;484875;1167;115801;-59
2021/04/27 03:51:41;;;;;;;46.10;25.60;;;;;;;-3.33;67.20;99601.77;471086;1170;115700;-58
2021/04/27 04:01:45;;;;;;;54.00;27.90;;;;;;;-3.14;66.50;99603.34;472795;1171;116447;-59
2021/04/27 04:11:50;;;;;;;44.65;26.10;;;;;;;-2.89;66.57;99605.70;471991;1170;115450;-56
2021/04/27 04:21:53;;;;;;;59.27;34.70;;;;;;;-2.48;66.85;99608.75;485187;1171;115755;-57
2021/04/27 04:31:57;;;;;;;69.90;34.83;;;;;;;-2.09;66.79;99618.63;485282;1170;115872;-57
2021/04/27 04:42:01;;;;;;;73.15;38.55;;;;;;;-1.61;66.58;99624.89;479955;1170;116226;-58
2021/04/27 04:52:06;;;;;;;91.10;55.13;;;;;;;-1.08;66.60;99626.72;485507;1171;116054;-58
2021/04/27 05:02:09;;;;;;;105.43;59.63;;;;;;;5.79;66.58;99616.14;483973;1170;117160;-57
2021/04/27 05:12:13;;;;;;;72.60;42.00;;;;;;;16.74;51.22;99602.97;483472;1170;116364;-58
2021/04/27 05:22:17;;;;;;;53.90;39.93;;;;;;;23.21;39.92;99595.47;473034;1170;116004;-58
2021/04/27 05:32:21;;;;;;;58.40;41.83;;;;;;;26.93;32.89;99583.46;474990;1169;116468;-59
2021/04/27 05:42:25;;;;;;;54.67;41.53;;;;;;;31.46;27.57;99579.49;471103;1170;116052;-59
2021/04/27 05:52:29;;;;;;;48.13;38.13;;;;;;;33.37;23.60;99587.65;469889;1170;115720;-59
2021/04/27 06:02:33;;;;;;;28.68;23.58;;;;;;;34.51;20.56;99589.09;469671;1170;116379;-59
2021/04/27 06:12:37;;;;;;;21.80;18.57;;;;;;;36.93;18.99;99586.14;469924;1169;116091;-59
2021/04/27 06:22:41;;;;;;;6.15;2.20;;;;;;;37.46;15.08;99588.53;471017;1170;116735;-59
2021/04/27 06:32:47;;;;;;;5.77;3.00;;;;;;;37.14;14.24;99587.80;468935;1171;115990;-60
2021/04/27 06:42:52;;;;;;;1.93;1.80;;;;;;;37.09;12.02;99597.92;470362;1170;117038;-59
2021/04/27 06:52:57;;;;;;;3.15;2.30;;;;;;;39.21;12.03;99596.02;471538;1168;115957;-60
2021/04/27 07:03:02;;;;;;;2.10;1.60;;;;;;;39.70;11.03;99602.34;470354;1170;115094;-57
2021/04/27 07:13:05;;;;;;;1.63;1.50;;;;;;;38.71;10.62;99602.45;469502;1169;116107;-56
2021/04/27 07:23:10;;;;;;;3.20;2.18;;;;;;;40.15;9.78;99607.56;454073;1169;20001988;-58
2021/04/27 07:33:14;;;;;;;1.87;1.60;;;;;;;40.34;9.79;99613.09;469974;1170;115482;-59
2021/04/27 07:43:18;;;;;;;2.40;1.90;;;;;;;40.90;8.96;99601.49;470221;1169;115950;-60
2021/04/27 07:53:24;;;;;;;1.50;1.48;;;;;;;39.91;9.00;99599.36;470605;1170;115869;-62
2021/04/27 08:03:28;;;;;;;1.27;1.17;;;;;;;39.36;9.12;99603.25;469860;1170;171691;-59
2021/04/27 08:13:33;;;;;;;3.40;3.10;;;;;;;35.13;8.77;99590.70;468693;1171;10001344;-58
2021/04/27 08:23:37;;;;;;;1.70;1.05;;;;;;;25.04;11.16;99602.15;469728;1170;115699;-57
2021/04/27 08:33:41;;;;;;;1.90;1.00;;;;;;;19.11;14.05;99607.48;470589;1169;115764;-58
2021/04/27 08:43:45;;;;;;;2.07;1.00;;;;;;;16.65;16.09;99612.59;471037;1170;115564;-57
2021/04/27 08:53:50;;;;;;;3.90;1.23;;;;;;;15.32;17.16;99611.59;470166;1170;115854;-57
2021/04/27 09:03:54;;;;;;;1.80;1.70;;;;;;;14.39;18.49;99606.70;470314;1170;116674;-58
2021/04/27 09:14:14;;;;;;;2.27;1.23;;;;;;;14.08;18.90;99606.52;470365;1170;115617;-54
2021/04/27 09:24:19;;;;;;;1.93;1.30;;;;;;;14.09;19.43;99602.06;469781;1170;115777;-55
2021/04/27 09:34:24;;;;;;;1.77;1.50;;;;;;;13.44;19.46;99595.53;470846;1170;115839;-58
2021/04/27 09:44:34;;;;;;;1.38;1.28;;;;;;;12.70;20.06;99595.73;461930;1171;10001826;-57
2021/04/27 09:55:06;;;;;;;1.60;1.30;;;;;;;11.75;20.91;99583.91;478410;1171;117431;-59
2021/04/27 10:05:11;;;;;;;2.80;1.20;;;;;;;11.35;21.54;99590.10;469928;1171;116024;-55
2021/04/27 10:15:16;;;;;;;1.00;1.00;;;;;;;11.07;21.16;99594.59;469469;1171;116393;-57
2021/04/27 10:25:22;;;;;;;1.10;0.90;;;;;;;11.02;22.13;99580.89;476190;1171;116585;-56
2021/04/27 10:35:26;;;;;;;3.40;2.10;;;;;;;10.59;22.35;99579.30;479306;1170;116019;-58
2021/04/27 10:45:32;;;;;;;2.00;1.17;;;;;;;10.54;22.24;99555.96;477067;1170;115873;-60
2021/04/27 10:55:37;;;;;;;2.00;1.30;;;;;;;10.08;22.59;99557.09;474772;1170;116417;-61
2021/04/27 11:05:52;;;;;;;1.40;0.97;;;;;;;10.42;22.75;99546.25;469820;1170;115732;-58
2021/04/27 11:15:57;;;;;;;10.43;2.73;;;;;;;10.93;23.37;99540.32;470321;1171;116365;-58
2021/04/27 11:26:01;;;;;;;1.07;1.00;;;;;;;10.85;23.08;99534.73;472367;1171;116171;-57
2021/04/27 11:36:05;;;;;;;2.73;1.27;;;;;;;11.45;23.22;99519.36;470898;1171;116163;-58
2021/04/27 11:46:09;;;;;;;3.97;1.40;;;;;;;12.11;22.70;99508.62;471381;1171;116134;-60
2021/04/27 11:56:13;;;;;;;2.87;1.47;;;;;;;12.00;22.32;99501.47;469948;1171;116317;-60
2021/04/27 12:06:18;;;;;;;1.97;1.40;;;;;;;11.74;22.11;99495.42;479912;1170;116001;-59
2021/04/27 12:16:28;;;;;;;2.70;1.55;;;;;;;10.82;23.34;99490.28;471705;1170;116598;-60
2021/04/27 12:26:33;;;;;;;2.25;1.70;;;;;;;10.07;23.74;99485.39;469347;1170;115859;-59
2021/04/27 12:36:39;;;;;;;1.73;1.40;;;;;;;10.01;23.93;99472.69;470963;1171;117791;-60
2021/04/27 12:46:49;;;;;;;4.57;1.87;;;;;;;9.68;24.47;99471.25;471953;1171;116314;-58
2021/04/27 12:57:13;;;;;;;3.23;2.07;;;;;;;9.51;24.90;99469.67;469540;1169;116788;-59
2021/04/27 13:07:32;;;;;;;4.10;2.37;;;;;;;9.57;24.88;99464.03;470233;1169;115794;-61
2021/04/27 13:17:38;;;;;;;3.30;1.50;;;;;;;9.72;24.80;99451.75;469405;1170;116234;-59
2021/04/27 13:27:46;;;;;;;2.83;1.60;;;;;;;9.68;25.18;99447.66;470345;1169;115837;-59
2021/04/27 13:37:51;;;;;;;4.38;1.80;;;;;;;9.78;25.39;99430.41;469824;1171;115806;-58
2021/04/27 13:47:55;;;;;;;3.10;2.13;;;;;;;9.72;25.44;99425.53;469133;1170;116789;-58
2021/04/27 13:57:59;;;;;;;2.00;1.80;;;;;;;9.65;25.66;99419.84;470464;1169;115663;-58
2021/04/27 14:08:03;;;;;;;2.50;1.90;;;;;;;9.39;25.83;99406.59;475042;1171;115608;-57
2021/04/27 14:18:08;;;;;;;1.75;1.40;;;;;;;9.37;26.42;99405.00;470486;1170;116047;-58
2021/04/27 14:28:13;;;;;;;2.00;1.70;;;;;;;9.40;26.32;99404.80;470519;1170;115525;-57
2021/04/27 14:38:17;;;;;;;2.77;2.00;;;;;;;9.46;26.38;99400.95;470335;1171;115193;-57
2021/04/27 14:48:31;;;;;;;1.93;1.40;;;;;;;9.35;26.45;99388.53;470003;1168;115614;-58
2021/04/27 14:58:34;;;;;;;1.70;1.60;;;;;;;9.23;26.42;99369.16;470610;1170;115663;-57
2021/04/27 15:08:38;;;;;;;2.07;1.43;;;;;;;9.20;26.52;99366.74;469840;1170;115623;-58
2021/04/27 15:18:42;;;;;;;2.90;1.90;;;;;;;9.20;26.83;99362.36;470657;1171;116510;-66
2021/04/27 15:28:46;;;;;;;2.53;1.63;;;;;;;9.22;27.10;99357.00;471104;1170;116473;-60
2021/04/27 15:38:50;;;;;;;2.75;1.40;;;;;;;9.14;27.66;99354.05;469726;1170;115797;-57
2021/04/27 15:48:54;;;;;;;9.70;5.10;;;;;;;9.05;27.71;99343.19;477560;1170;116072;-57
2021/04/27 15:58:58;;;;;;;1.70;1.60;;;;;;;8.92;27.74;99337.85;470329;1171;115854;-61
2021/04/27 16:09:02;;;;;;;2.57;1.80;;;;;;;8.78;27.50;99336.09;469581;1170;115270;-57
2021/04/27 16:19:06;;;;;;;3.15;1.60;;;;;;;8.69;28.39;99332.23;470587;1170;116479;-58
2021/04/27 16:29:09;;;;;;;1.73;1.53;;;;;;;8.60;28.74;99321.50;469654;1170;115325;-57
2021/04/27 16:39:13;;;;;;;2.23;1.73;;;;;;;8.46;28.91;99327.52;469090;1168;117984;-58
2021/04/27 16:49:17;;;;;;;2.23;1.53;;;;;;;8.32;29.47;99334.41;469931;1171;115808;-55
2021/04/27 16:59:22;;;;;;;9.00;3.80;;;;;;;8.25;29.67;99338.31;470272;1170;114487;-57
2021/04/27 17:09:26;;;;;;;3.67;2.60;;;;;;;8.31;29.72;99340.58;480618;1171;115801;-58
2021/04/27 17:19:33;;;;;;;2.40;1.60;;;;;;;8.02;29.93;99345.71;485292;1171;115606;-57
2021/04/27 17:29:37;;;;;;;5.30;3.10;;;;;;;7.85;30.37;99339.69;477342;1170;115881;-58
2021/04/27 17:39:41;;;;;;;5.30;2.70;;;;;;;7.47;30.93;99339.22;470244;1170;115756;-60
2021/04/27 17:49:45;;;;;;;6.07;3.40;;;;;;;7.09;32.01;99350.81;470032;1169;115501;-58
2021/04/27 17:59:49;;;;;;;7.40;3.30;;;;;;;6.78;32.55;99362.90;469960;1171;115128;-57
2021/04/27 18:09:53;;;;;;;4.90;3.70;;;;;;;6.43;33.47;99368.98;462258;1170;10003271;-58
2021/04/27 18:19:57;;;;;;;5.70;4.33;;;;;;;6.13;34.32;99367.83;470462;1171;116159;-58
2021/04/27 18:30:01;;;;;;;6.85;4.10;;;;;;;5.92;34.58;99371.45;470595;1170;115546;-57
2021/04/27 18:40:07;;;;;;;4.77;3.83;;;;;;;5.72;34.74;99374.10;470870;1171;115229;-59
2021/04/27 18:50:13;;;;;;;5.60;3.70;;;;;;;5.57;35.22;99391.29;470497;1171;115612;-59
2021/04/27 19:00:19;;;;;;;13.30;5.37;;;;;;;5.35;35.98;99387.98;470031;1171;115095;-58
2021/04/27 19:10:26;;;;;;;11.45;6.30;;;;;;;5.18;36.80;99389.61;470609;1170;115822;-59
2021/04/27 19:20:34;;;;;;;11.00;6.20;;;;;;;5.06;37.73;99393.59;469842;1170;115941;-56
2021/04/27 19:30:38;;;;;;;12.20;7.70;;;;;;;4.88;37.71;99390.91;471380;1170;115915;-58
2021/04/27 19:40:42;;;;;;;11.37;6.90;;;;;;;4.68;38.47;99390.92;470376;1171;116008;-58
2021/04/27 19:50:46;;;;;;;9.85;5.90;;;;;;;4.58;38.71;99393.08;470005;1171;116569;-58
2021/04/27 20:00:50;;;;;;;14.57;8.27;;;;;;;4.47;39.53;99393.52;470511;1171;115166;-59
2021/04/27 20:10:54;;;;;;;13.10;7.47;;;;;;;4.38;39.65;99399.95;470507;1170;115651;-60
2021/04/27 20:20:59;;;;;;;19.80;9.45;;;;;;;4.21;40.61;99392.84;470473;1170;116856;-59
2021/04/27 20:31:03;;;;;;;16.13;9.43;;;;;;;4.14;40.72;99400.05;470371;1173;115857;-58
2021/04/27 20:41:07;;;;;;;20.57;10.90;;;;;;;4.01;40.89;99409.25;470645;1171;115745;-59
2021/04/27 20:51:11;;;;;;;20.70;10.25;;;;;;;3.93;41.73;99396.57;469976;1170;116565;-58
2021/04/27 21:01:15;;;;;;;22.60;10.83;;;;;;;3.84;42.18;99410.75;470732;1171;115527;-58
2021/04/27 21:11:22;;;;;;;17.15;9.60;;;;;;;3.77;42.18;99404.95;470277;1171;116987;-58
2021/04/27 21:21:25;;;;;;;13.57;9.70;;;;;;;3.63;42.73;99409.84;470742;1170;117443;-62
2021/04/27 21:31:30;;;;;;;17.00;8.90;;;;;;;3.55;43.09;99407.54;469957;1170;115763;-59
2021/04/27 21:41:34;;;;;;;15.87;9.90;;;;;;;3.45;43.11;99416.58;470019;1171;115455;-60
2021/04/27 21:51:38;;;;;;;13.77;7.83;;;;;;;3.29;43.23;99418.89;470090;1170;115136;-58
2021/04/27 22:01:42;;;;;;;12.33;7.97;;;;;;;3.26;43.11;99416.41;470303;1167;116130;-58
2021/04/27 22:11:46;;;;;;;13.35;6.80;;;;;;;3.35;42.63;99416.91;469920;1170;115541;-59
2021/04/27 22:21:50;;;;;;;8.60;6.37;;;;;;;3.29;42.66;99408.51;462499;1170;10001480;-58
2021/04/27 22:31:54;;;;;;;10.00;6.23;;;;;;;3.34;42.23;99417.81;474906;1170;116448;-58
2021/04/27 22:41:58;;;;;;;10.20;6.60;;;;;;;3.31;42.74;99417.94;469910;1169;115651;-58
2021/04/27 22:52:02;;;;;;;12.90;8.43;;;;;;;3.14;43.11;99408.17;469970;1171;117019;-57
2021/04/27 23:02:06;;;;;;;13.30;8.83;;;;;;;2.99;43.19;99413.89;470503;1171;115118;-57
2021/04/27 23:12:11;;;;;;;15.10;8.50;;;;;;;2.77;43.78;99415.51;469185;1170;115355;-56
2021/04/27 23:22:53;;;;;;;15.93;9.20;;;;;;;2.59;44.42;99405.76;514269;1090;70577;-56
2021/04/27 23:32:58;;;;;;;14.77;8.33;;;;;;;2.45;44.62;99399.30;511951;1097;115680;-57
2021/04/27 23:43:03;;;;;;;12.67;8.43;;;;;;;2.35;45.06;99395.32;513353;1101;114955;-57
2021/04/27 23:53:07;;;;;;;12.35;9.60;;;;;;;2.21;45.27;99388.03;513420;1097;115766;-57
